sensor_id;sensor_type;location;lat;lon;timestamp;P1;durP1;ratioP1;P2;durP2;ratioP2
52126;SDS011;38120;53.176;6.614;2023-04-01T00:00:19;9.40;;;5.07;;
52126;SDS011;38120;53.176;6.614;2023-04-01T00:02:45;6.88;;;4.25;;
52126;SDS011;38120;53.176;6.614;2023-04-01T00:05:12;9.45;;;5.18;;
52126;SDS011;38120;53.176;6.614;2023-04-01T00:07:38;9.85;;;4.78;;
52126;SDS011;38120;53.176;6.614;2023-04-01T00:10:09;6.40;;;4.15;;
52126;SDS011;38120;53.176;6.614;2023-04-01T00:12:36;8.65;;;4.63;;
52126;SDS011;38120;53.176;6.614;2023-04-01T00:15:03;7.30;;;4.90;;
52126;SDS011;38120;53.176;6.614;2023-04-01T00:17:32;7.85;;;4.75;;
52126;SDS011;38120;53.176;6.614;2023-04-01T00:19:59;9.07;;;5.38;;
52126;SDS011;38120;53.176;6.614;2023-04-01T00:22:24;7.93;;;5.10;;
52126;SDS011;38120;53.176;6.614;2023-04-01T00:24:51;9.68;;;5.05;;
52126;SDS011;38120;53.176;6.614;2023-04-01T00:27:18;11.85;;;5.88;;
52126;SDS011;38120;53.176;6.614;2023-04-01T00:29:45;8.00;;;5.22;;
52126;SDS011;38120;53.176;6.614;2023-04-01T00:32:11;6.72;;;4.70;;
52126;SDS011;38120;53.176;6.614;2023-04-01T00:34:37;7.88;;;5.03;;
52126;SDS011;38120;53.176;6.614;2023-04-01T00:37:08;7.05;;;4.95;;
52126;SDS011;38120;53.176;6.614;2023-04-01T00:39:34;7.68;;;5.00;;
52126;SDS011;38120;53.176;6.614;2023-04-01T00:44:28;7.75;;;5.15;;
52126;SDS011;38120;53.176;6.614;2023-04-01T00:46:56;8.90;;;5.30;;
52126;SDS011;38120;53.176;6.614;2023-04-01T00:49:23;7.90;;;5.80;;
52126;SDS011;38120;53.176;6.614;2023-04-01T00:51:52;9.43;;;6.00;;
52126;SDS011;38120;53.176;6.614;2023-04-01T00:54:21;7.20;;;5.45;;
52126;SDS011;38120;53.176;6.614;2023-04-01T00:56:50;9.25;;;5.57;;
52126;SDS011;38120;53.176;6.614;2023-04-01T00:59:40;9.75;;;5.65;;
52126;SDS011;38120;53.176;6.614;2023-04-01T01:02:10;8.35;;;5.68;;
52126;SDS011;38120;53.176;6.614;2023-04-01T01:04:38;9.60;;;6.95;;
52126;SDS011;38120;53.176;6.614;2023-04-01T01:15:16;9.82;;;6.07;;
52126;SDS011;38120;53.176;6.614;2023-04-01T01:31:23;9.80;;;6.25;;
52126;SDS011;38120;53.176;6.614;2023-04-01T01:34:43;10.65;;;6.57;;
52126;SDS011;38120;53.176;6.614;2023-04-01T01:36:53;11.60;;;7.22;;
52126;SDS011;38120;53.176;6.614;2023-04-01T01:39:23;9.73;;;6.50;;
52126;SDS011;38120;53.176;6.614;2023-04-01T01:41:55;10.63;;;5.60;;
52126;SDS011;38120;53.176;6.614;2023-04-01T01:44:27;10.73;;;6.85;;
52126;SDS011;38120;53.176;6.614;2023-04-01T01:46:55;11.02;;;7.00;;
52126;SDS011;38120;53.176;6.614;2023-04-01T01:51:48;9.50;;;6.55;;
52126;SDS011;38120;53.176;6.614;2023-04-01T01:54:15;9.48;;;6.22;;
52126;SDS011;38120;53.176;6.614;2023-04-01T01:56:43;13.30;;;6.93;;
52126;SDS011;38120;53.176;6.614;2023-04-01T01:59:12;9.27;;;5.68;;
52126;SDS011;38120;53.176;6.614;2023-04-01T02:01:42;11.35;;;6.95;;
52126;SDS011;38120;53.176;6.614;2023-04-01T02:04:12;11.48;;;7.53;;
52126;SDS011;38120;53.176;6.614;2023-04-01T02:06:40;10.05;;;6.90;;
52126;SDS011;38120;53.176;6.614;2023-04-01T02:09:11;11.05;;;7.03;;
52126;SDS011;38120;53.176;6.614;2023-04-01T02:14:23;12.52;;;6.97;;
52126;SDS011;38120;53.176;6.614;2023-04-01T02:19:36;12.07;;;6.22;;
52126;SDS011;38120;53.176;6.614;2023-04-01T02:22:11;14.88;;;7.28;;
52126;SDS011;38120;53.176;6.614;2023-04-01T02:24:41;14.15;;;6.93;;
52126;SDS011;38120;53.176;6.614;2023-04-01T02:27:08;11.15;;;7.38;;
52126;SDS011;38120;53.176;6.614;2023-04-01T02:29:35;12.85;;;7.38;;
52126;SDS011;38120;53.176;6.614;2023-04-01T02:32:00;13.57;;;7.72;;
52126;SDS011;38120;53.176;6.614;2023-04-01T02:34:28;13.82;;;7.75;;
52126;SDS011;38120;53.176;6.614;2023-04-01T02:39:20;9.57;;;5.88;;
52126;SDS011;38120;53.176;6.614;2023-04-01T02:41:46;14.98;;;7.95;;
52126;SDS011;38120;53.176;6.614;2023-04-01T02:44:13;11.60;;;6.70;;
52126;SDS011;38120;53.176;6.614;2023-04-01T02:46:41;11.93;;;7.35;;
52126;SDS011;38120;53.176;6.614;2023-04-01T02:49:07;13.90;;;6.88;;
52126;SDS011;38120;53.176;6.614;2023-04-01T02:51:33;10.32;;;7.05;;
52126;SDS011;38120;53.176;6.614;2023-04-01T02:53:59;11.77;;;7.35;;
52126;SDS011;38120;53.176;6.614;2023-04-01T02:56:25;14.32;;;6.93;;
52126;SDS011;38120;53.176;6.614;2023-04-01T02:58:51;10.18;;;6.95;;
52126;SDS011;38120;53.176;6.614;2023-04-01T03:01:18;11.00;;;6.65;;
52126;SDS011;38120;53.176;6.614;2023-04-01T03:03:44;9.35;;;6.80;;
52126;SDS011;38120;53.176;6.614;2023-04-01T03:06:11;12.85;;;8.10;;
52126;SDS011;38120;53.176;6.614;2023-04-01T03:08:38;10.60;;;6.97;;
52126;SDS011;38120;53.176;6.614;2023-04-01T03:11:04;9.95;;;6.35;;
52126;SDS011;38120;53.176;6.614;2023-04-01T03:13:31;13.98;;;7.72;;
52126;SDS011;38120;53.176;6.614;2023-04-01T03:15:57;11.88;;;7.80;;
52126;SDS011;38120;53.176;6.614;2023-04-01T03:18:22;11.48;;;7.70;;
52126;SDS011;38120;53.176;6.614;2023-04-01T03:20:48;10.77;;;7.10;;
52126;SDS011;38120;53.176;6.614;2023-04-01T03:23:14;14.20;;;8.65;;
52126;SDS011;38120;53.176;6.614;2023-04-01T03:25:42;12.60;;;8.23;;
52126;SDS011;38120;53.176;6.614;2023-04-01T03:28:08;10.65;;;7.95;;
52126;SDS011;38120;53.176;6.614;2023-04-01T03:30:34;14.63;;;9.55;;
52126;SDS011;38120;53.176;6.614;2023-04-01T03:33:00;13.20;;;8.80;;
52126;SDS011;38120;53.176;6.614;2023-04-01T03:35:26;15.70;;;9.77;;
52126;SDS011;38120;53.176;6.614;2023-04-01T03:37:53;17.50;;;9.05;;
52126;SDS011;38120;53.176;6.614;2023-04-01T03:42:45;17.48;;;9.75;;
52126;SDS011;38120;53.176;6.614;2023-04-01T03:45:11;14.43;;;9.52;;
52126;SDS011;38120;53.176;6.614;2023-04-01T03:47:37;13.50;;;9.38;;
52126;SDS011;38120;53.176;6.614;2023-04-01T03:50:04;14.23;;;9.18;;
52126;SDS011;38120;53.176;6.614;2023-04-01T03:52:30;16.38;;;9.57;;
52126;SDS011;38120;53.176;6.614;2023-04-01T03:54:56;16.17;;;9.37;;
52126;SDS011;38120;53.176;6.614;2023-04-01T03:57:21;15.77;;;10.17;;
52126;SDS011;38120;53.176;6.614;2023-04-01T03:59:47;15.53;;;9.90;;
52126;SDS011;38120;53.176;6.614;2023-04-01T04:02:13;15.13;;;9.63;;
52126;SDS011;38120;53.176;6.614;2023-04-01T04:04:39;19.93;;;10.90;;
52126;SDS011;38120;53.176;6.614;2023-04-01T04:07:04;14.75;;;9.85;;
52126;SDS011;38120;53.176;6.614;2023-04-01T04:09:31;15.77;;;9.15;;
52126;SDS011;38120;53.176;6.614;2023-04-01T04:11:57;15.48;;;10.05;;
52126;SDS011;38120;53.176;6.614;2023-04-01T04:14:22;16.10;;;10.60;;
52126;SDS011;38120;53.176;6.614;2023-04-01T04:16:49;18.77;;;11.48;;
52126;SDS011;38120;53.176;6.614;2023-04-01T04:19:14;15.87;;;10.40;;
52126;SDS011;38120;53.176;6.614;2023-04-01T04:21:40;16.47;;;10.70;;
52126;SDS011;38120;53.176;6.614;2023-04-01T04:24:07;16.67;;;10.57;;
52126;SDS011;38120;53.176;6.614;2023-04-01T04:26:32;17.27;;;11.30;;
52126;SDS011;38120;53.176;6.614;2023-04-01T04:28:58;16.17;;;10.97;;
52126;SDS011;38120;53.176;6.614;2023-04-01T04:31:24;14.63;;;10.05;;
52126;SDS011;38120;53.176;6.614;2023-04-01T04:33:51;18.67;;;10.45;;
52126;SDS011;38120;53.176;6.614;2023-04-01T04:36:18;17.33;;;11.60;;
52126;SDS011;38120;53.176;6.614;2023-04-01T04:38:44;16.58;;;10.50;;
52126;SDS011;38120;53.176;6.614;2023-04-01T04:41:11;17.90;;;11.65;;
52126;SDS011;38120;53.176;6.614;2023-04-01T04:43:38;19.48;;;11.15;;
52126;SDS011;38120;53.176;6.614;2023-04-01T04:46:08;15.77;;;10.13;;
52126;SDS011;38120;53.176;6.614;2023-04-01T04:48:35;20.13;;;11.32;;
52126;SDS011;38120;53.176;6.614;2023-04-01T04:51:01;15.50;;;10.63;;
52126;SDS011;38120;53.176;6.614;2023-04-01T04:53:28;13.82;;;9.32;;
52126;SDS011;38120;53.176;6.614;2023-04-01T04:55:54;17.02;;;10.63;;
52126;SDS011;38120;53.176;6.614;2023-04-01T04:58:20;16.53;;;10.57;;
52126;SDS011;38120;53.176;6.614;2023-04-01T05:00:46;17.30;;;11.32;;
52126;SDS011;38120;53.176;6.614;2023-04-01T05:03:12;17.45;;;11.82;;
52126;SDS011;38120;53.176;6.614;2023-04-01T05:05:38;16.77;;;11.85;;
52126;SDS011;38120;53.176;6.614;2023-04-01T05:08:05;17.58;;;11.85;;
52126;SDS011;38120;53.176;6.614;2023-04-01T05:10:31;17.90;;;11.05;;
52126;SDS011;38120;53.176;6.614;2023-04-01T05:12:57;16.95;;;11.07;;
52126;SDS011;38120;53.176;6.614;2023-04-01T05:15:23;18.60;;;10.98;;
52126;SDS011;38120;53.176;6.614;2023-04-01T05:17:49;15.57;;;9.90;;
52126;SDS011;38120;53.176;6.614;2023-04-01T05:20:15;16.52;;;11.18;;
52126;SDS011;38120;53.176;6.614;2023-04-01T05:22:41;14.90;;;10.02;;
52126;SDS011;38120;53.176;6.614;2023-04-01T05:25:07;14.35;;;9.55;;
52126;SDS011;38120;53.176;6.614;2023-04-01T05:27:33;13.65;;;8.27;;
52126;SDS011;38120;53.176;6.614;2023-04-01T05:29:59;14.40;;;9.55;;
52126;SDS011;38120;53.176;6.614;2023-04-01T05:32:25;15.38;;;11.30;;
52126;SDS011;38120;53.176;6.614;2023-04-01T05:34:51;16.77;;;11.17;;
52126;SDS011;38120;53.176;6.614;2023-04-01T05:37:17;16.92;;;10.73;;
52126;SDS011;38120;53.176;6.614;2023-04-01T05:39:43;15.38;;;10.57;;
52126;SDS011;38120;53.176;6.614;2023-04-01T05:42:10;16.55;;;10.40;;
52126;SDS011;38120;53.176;6.614;2023-04-01T05:44:35;14.63;;;9.57;;
52126;SDS011;38120;53.176;6.614;2023-04-01T05:47:04;13.55;;;9.63;;
52126;SDS011;38120;53.176;6.614;2023-04-01T05:49:47;16.35;;;10.20;;
52126;SDS011;38120;53.176;6.614;2023-04-01T05:52:13;15.07;;;9.70;;
52126;SDS011;38120;53.176;6.614;2023-04-01T05:54:39;15.27;;;10.25;;
52126;SDS011;38120;53.176;6.614;2023-04-01T05:57:05;20.23;;;10.73;;
52126;SDS011;38120;53.176;6.614;2023-04-01T05:59:31;15.27;;;9.00;;
52126;SDS011;38120;53.176;6.614;2023-04-01T06:01:57;15.77;;;9.47;;
52126;SDS011;38120;53.176;6.614;2023-04-01T06:04:23;12.93;;;8.32;;
52126;SDS011;38120;53.176;6.614;2023-04-01T06:06:50;14.57;;;8.40;;
52126;SDS011;38120;53.176;6.614;2023-04-01T06:09:18;13.32;;;8.73;;
52126;SDS011;38120;53.176;6.614;2023-04-01T06:17:41;16.90;;;9.85;;
52126;SDS011;38120;53.176;6.614;2023-04-01T06:51:00;22.17;;;12.23;;
52126;SDS011;38120;53.176;6.614;2023-04-01T06:53:05;19.40;;;12.75;;
52126;SDS011;38120;53.176;6.614;2023-04-01T06:56:00;21.05;;;13.43;;
52126;SDS011;38120;53.176;6.614;2023-04-01T06:59:08;21.98;;;13.18;;
52126;SDS011;38120;53.176;6.614;2023-04-01T07:04:23;21.60;;;12.95;;
52126;SDS011;38120;53.176;6.614;2023-04-01T07:07:04;24.10;;;14.50;;
52126;SDS011;38120;53.176;6.614;2023-04-01T07:09:38;21.17;;;14.40;;
52126;SDS011;38120;53.176;6.614;2023-04-01T07:12:43;21.30;;;14.60;;
52126;SDS011;38120;53.176;6.614;2023-04-01T07:17:47;18.35;;;12.27;;
52126;SDS011;38120;53.176;6.614;2023-04-01T07:22:54;21.55;;;13.73;;
52126;SDS011;38120;53.176;6.614;2023-04-01T07:25:37;19.27;;;13.30;;
52126;SDS011;38120;53.176;6.614;2023-04-01T07:28:11;20.98;;;12.63;;
52126;SDS011;38120;53.176;6.614;2023-04-01T07:31:02;24.08;;;14.27;;
52126;SDS011;38120;53.176;6.614;2023-04-01T07:36:13;19.05;;;12.30;;
52126;SDS011;38120;53.176;6.614;2023-04-01T07:38:55;20.63;;;14.02;;
52126;SDS011;38120;53.176;6.614;2023-04-01T07:41:49;20.55;;;12.98;;
52126;SDS011;38120;53.176;6.614;2023-04-01T07:58:28;19.17;;;12.43;;
52126;SDS011;38120;53.176;6.614;2023-04-01T08:06:00;22.15;;;12.75;;
52126;SDS011;38120;53.176;6.614;2023-04-01T08:11:21;21.23;;;10.70;;
52126;SDS011;38120;53.176;6.614;2023-04-01T08:14:33;20.75;;;11.10;;
52126;SDS011;38120;53.176;6.614;2023-04-01T08:17:39;16.75;;;10.27;;
52126;SDS011;38120;53.176;6.614;2023-04-01T08:20:24;16.30;;;10.15;;
52126;SDS011;38120;53.176;6.614;2023-04-01T08:23:03;16.92;;;10.85;;
52126;SDS011;38120;53.176;6.614;2023-04-01T08:26:01;17.10;;;9.88;;
52126;SDS011;38120;53.176;6.614;2023-04-01T08:29:06;14.65;;;8.30;;
52126;SDS011;38120;53.176;6.614;2023-04-01T08:31:37;19.10;;;10.25;;
52126;SDS011;38120;53.176;6.614;2023-04-01T08:34:20;16.20;;;10.18;;
52126;SDS011;38120;53.176;6.614;2023-04-01T08:36:59;16.35;;;9.77;;
52126;SDS011;38120;53.176;6.614;2023-04-01T08:39:37;19.83;;;8.93;;
52126;SDS011;38120;53.176;6.614;2023-04-01T08:42:29;15.82;;;10.20;;
52126;SDS011;38120;53.176;6.614;2023-04-01T08:45:21;15.30;;;10.05;;
52126;SDS011;38120;53.176;6.614;2023-04-01T08:51:16;15.40;;;9.40;;
52126;SDS011;38120;53.176;6.614;2023-04-01T08:56:26;12.45;;;8.02;;
52126;SDS011;38120;53.176;6.614;2023-04-01T09:04:39;12.75;;;7.47;;
52126;SDS011;38120;53.176;6.614;2023-04-01T09:09:43;13.13;;;7.60;;
52126;SDS011;38120;53.176;6.614;2023-04-01T09:36:45;4.93;;;2.42;;
52126;SDS011;38120;53.176;6.614;2023-04-01T10:11:41;4.97;;;2.80;;
52126;SDS011;38120;53.176;6.614;2023-04-01T10:22:00;7.15;;;2.78;;
52126;SDS011;38120;53.176;6.614;2023-04-01T10:24:58;5.88;;;2.88;;
52126;SDS011;38120;53.176;6.614;2023-04-01T10:27:49;3.53;;;2.05;;
52126;SDS011;38120;53.176;6.614;2023-04-01T10:45:16;2.80;;;1.98;;
52126;SDS011;38120;53.176;6.614;2023-04-01T10:58:56;5.50;;;1.70;;
52126;SDS011;38120;53.176;6.614;2023-04-01T11:13:02;4.10;;;2.00;;
52126;SDS011;38120;53.176;6.614;2023-04-01T11:27:17;4.80;;;2.65;;
52126;SDS011;38120;53.176;6.614;2023-04-01T11:33:03;4.90;;;2.75;;
52126;SDS011;38120;53.176;6.614;2023-04-01T11:41:43;4.28;;;2.38;;
52126;SDS011;38120;53.176;6.614;2023-04-01T11:44:27;4.28;;;2.85;;
52126;SDS011;38120;53.176;6.614;2023-04-01T11:47:07;3.70;;;2.15;;
52126;SDS011;38120;53.176;6.614;2023-04-01T11:49:46;4.28;;;2.45;;
52126;SDS011;38120;53.176;6.614;2023-04-01T12:00:54;4.85;;;3.17;;
52126;SDS011;38120;53.176;6.614;2023-04-01T12:03:42;4.20;;;2.53;;
52126;SDS011;38120;53.176;6.614;2023-04-01T12:08:50;5.35;;;3.22;;
52126;SDS011;38120;53.176;6.614;2023-04-01T12:14:14;4.32;;;2.45;;
52126;SDS011;38120;53.176;6.614;2023-04-01T12:33:59;2.75;;;1.73;;
52126;SDS011;38120;53.176;6.614;2023-04-01T12:50:09;3.88;;;2.17;;
52126;SDS011;38120;53.176;6.614;2023-04-01T12:55:35;3.40;;;1.88;;
52126;SDS011;38120;53.176;6.614;2023-04-01T13:03:56;3.97;;;2.58;;
52126;SDS011;38120;53.176;6.614;2023-04-01T13:12:40;6.20;;;2.67;;
52126;SDS011;38120;53.176;6.614;2023-04-01T13:18:14;4.47;;;2.92;;
52126;SDS011;38120;53.176;6.614;2023-04-01T13:20:43;4.28;;;3.30;;
52126;SDS011;38120;53.176;6.614;2023-04-01T13:29:03;2.63;;;1.80;;
52126;SDS011;38120;53.176;6.614;2023-04-01T13:31:38;2.92;;;1.65;;
52126;SDS011;38120;53.176;6.614;2023-04-01T13:42:26;3.63;;;2.05;;
52126;SDS011;38120;53.176;6.614;2023-04-01T13:56:08;2.20;;;1.27;;
52126;SDS011;38120;53.176;6.614;2023-04-01T14:19:29;3.03;;;1.70;;
52126;SDS011;38120;53.176;6.614;2023-04-01T14:33:15;1.58;;;1.30;;
52126;SDS011;38120;53.176;6.614;2023-04-01T14:38:31;2.25;;;1.33;;
52126;SDS011;38120;53.176;6.614;2023-04-01T14:41:35;2.50;;;1.48;;
52126;SDS011;38120;53.176;6.614;2023-04-01T14:50:02;3.58;;;1.30;;
52126;SDS011;38120;53.176;6.614;2023-04-01T14:52:59;3.35;;;1.55;;
52126;SDS011;38120;53.176;6.614;2023-04-01T14:55:50;2.10;;;1.30;;
52126;SDS011;38120;53.176;6.614;2023-04-01T14:58:47;3.13;;;1.70;;
52126;SDS011;38120;53.176;6.614;2023-04-01T15:01:19;3.63;;;1.50;;
52126;SDS011;38120;53.176;6.614;2023-04-01T15:06:42;2.88;;;1.83;;
52126;SDS011;38120;53.176;6.614;2023-04-01T15:19:42;4.00;;;1.95;;
52126;SDS011;38120;53.176;6.614;2023-04-01T15:30:39;4.75;;;2.05;;
52126;SDS011;38120;53.176;6.614;2023-04-01T15:36:41;6.40;;;2.20;;
52126;SDS011;38120;53.176;6.614;2023-04-01T15:38:47;5.65;;;1.98;;
52126;SDS011;38120;53.176;6.614;2023-04-01T15:41:23;4.50;;;1.92;;
52126;SDS011;38120;53.176;6.614;2023-04-01T15:46:53;3.95;;;2.30;;
52126;SDS011;38120;53.176;6.614;2023-04-01T15:59:54;5.22;;;2.67;;
52126;SDS011;38120;53.176;6.614;2023-04-01T16:04:58;6.47;;;2.70;;
52126;SDS011;38120;53.176;6.614;2023-04-01T16:16:05;5.43;;;2.88;;
52126;SDS011;38120;53.176;6.614;2023-04-01T16:49:04;7.07;;;3.65;;
52126;SDS011;38120;53.176;6.614;2023-04-01T16:59:38;5.18;;;3.38;;
52126;SDS011;38120;53.176;6.614;2023-04-01T17:02:16;8.02;;;3.85;;
52126;SDS011;38120;53.176;6.614;2023-04-01T17:05:04;8.05;;;3.97;;
52126;SDS011;38120;53.176;6.614;2023-04-01T17:07:43;9.63;;;4.20;;
52126;SDS011;38120;53.176;6.614;2023-04-01T17:21:44;5.68;;;3.30;;
52126;SDS011;38120;53.176;6.614;2023-04-01T17:32:27;6.38;;;3.40;;
52126;SDS011;38120;53.176;6.614;2023-04-01T17:35:19;8.02;;;4.25;;
52126;SDS011;38120;53.176;6.614;2023-04-01T17:49:29;8.48;;;3.70;;
52126;SDS011;38120;53.176;6.614;2023-04-01T17:57:24;9.52;;;4.00;;
52126;SDS011;38120;53.176;6.614;2023-04-01T18:10:41;7.03;;;3.38;;
52126;SDS011;38120;53.176;6.614;2023-04-01T18:18:33;9.38;;;3.97;;
52126;SDS011;38120;53.176;6.614;2023-04-01T18:21:24;7.63;;;4.00;;
52126;SDS011;38120;53.176;6.614;2023-04-01T18:23:54;7.47;;;3.72;;
52126;SDS011;38120;53.176;6.614;2023-04-01T18:37:17;9.43;;;5.13;;
52126;SDS011;38120;53.176;6.614;2023-04-01T18:40:10;8.52;;;4.78;;
52126;SDS011;38120;53.176;6.614;2023-04-01T18:46:48;10.38;;;5.60;;
52126;SDS011;38120;53.176;6.614;2023-04-01T18:49:10;12.63;;;5.88;;
52126;SDS011;38120;53.176;6.614;2023-04-01T18:51:49;12.70;;;5.32;;
52126;SDS011;38120;53.176;6.614;2023-04-01T18:54:25;11.05;;;5.43;;
52126;SDS011;38120;53.176;6.614;2023-04-01T18:57:04;14.40;;;7.80;;
52126;SDS011;38120;53.176;6.614;2023-04-01T18:59:45;10.10;;;5.63;;
52126;SDS011;38120;53.176;6.614;2023-04-01T19:10:17;8.95;;;4.63;;
52126;SDS011;38120;53.176;6.614;2023-04-01T19:12:59;11.65;;;6.22;;
52126;SDS011;38120;53.176;6.614;2023-04-01T19:15:32;12.10;;;6.00;;
52126;SDS011;38120;53.176;6.614;2023-04-01T19:21:01;15.25;;;8.48;;
52126;SDS011;38120;53.176;6.614;2023-04-01T19:23:57;15.23;;;7.65;;
52126;SDS011;38120;53.176;6.614;2023-04-01T19:37:45;12.52;;;6.43;;
52126;SDS011;38120;53.176;6.614;2023-04-01T19:40:17;13.30;;;6.47;;
52126;SDS011;38120;53.176;6.614;2023-04-01T19:43:43;9.23;;;5.90;;
52126;SDS011;38120;53.176;6.614;2023-04-01T19:46:02;12.75;;;5.60;;
52126;SDS011;38120;53.176;6.614;2023-04-01T19:48:57;9.52;;;5.10;;
52126;SDS011;38120;53.176;6.614;2023-04-01T19:57:15;10.25;;;4.95;;
52126;SDS011;38120;53.176;6.614;2023-04-01T20:02:53;8.07;;;4.43;;
52126;SDS011;38120;53.176;6.614;2023-04-01T20:08:11;9.73;;;4.72;;
52126;SDS011;38120;53.176;6.614;2023-04-01T20:13:44;10.57;;;5.15;;
52126;SDS011;38120;53.176;6.614;2023-04-01T20:16:13;8.02;;;4.75;;
52126;SDS011;38120;53.176;6.614;2023-04-01T20:18:51;12.43;;;4.82;;
52126;SDS011;38120;53.176;6.614;2023-04-01T20:21:27;9.30;;;4.35;;
52126;SDS011;38120;53.176;6.614;2023-04-01T20:26:59;11.02;;;4.10;;
52126;SDS011;38120;53.176;6.614;2023-04-01T20:35:23;7.27;;;3.87;;
52126;SDS011;38120;53.176;6.614;2023-04-01T20:38:12;8.95;;;3.70;;
52126;SDS011;38120;53.176;6.614;2023-04-01T20:40:50;7.60;;;3.92;;
52126;SDS011;38120;53.176;6.614;2023-04-01T20:43:29;7.65;;;3.60;;
52126;SDS011;38120;53.176;6.614;2023-04-01T20:46:20;7.43;;;3.90;;
52126;SDS011;38120;53.176;6.614;2023-04-01T20:49:01;8.07;;;4.22;;
52126;SDS011;38120;53.176;6.614;2023-04-01T20:51:54;8.05;;;3.75;;
52126;SDS011;38120;53.176;6.614;2023-04-01T21:00:03;7.43;;;3.45;;
52126;SDS011;38120;53.176;6.614;2023-04-01T21:05:51;7.93;;;4.00;;
52126;SDS011;38120;53.176;6.614;2023-04-01T21:08:36;9.43;;;4.00;;
52126;SDS011;38120;53.176;6.614;2023-04-01T21:17:04;7.03;;;3.67;;
52126;SDS011;38120;53.176;6.614;2023-04-01T21:27:57;8.73;;;3.90;;
52126;SDS011;38120;53.176;6.614;2023-04-01T21:30:36;8.43;;;4.32;;
52126;SDS011;38120;53.176;6.614;2023-04-01T21:33:44;7.93;;;3.83;;
52126;SDS011;38120;53.176;6.614;2023-04-01T21:44:43;8.73;;;3.95;;
52126;SDS011;38120;53.176;6.614;2023-04-01T21:58:09;9.85;;;4.88;;
52126;SDS011;38120;53.176;6.614;2023-04-01T22:01:14;10.90;;;4.07;;
52126;SDS011;38120;53.176;6.614;2023-04-01T22:11:35;7.80;;;4.10;;
52126;SDS011;38120;53.176;6.614;2023-04-01T22:14:16;7.32;;;3.10;;
52126;SDS011;38120;53.176;6.614;2023-04-01T22:28:05;6.03;;;3.22;;
52126;SDS011;38120;53.176;6.614;2023-04-01T22:30:50;7.07;;;3.30;;
52126;SDS011;38120;53.176;6.614;2023-04-01T22:33:32;7.28;;;3.85;;
52126;SDS011;38120;53.176;6.614;2023-04-01T22:50:21;7.00;;;3.67;;
52126;SDS011;38120;53.176;6.614;2023-04-01T22:55:29;6.90;;;3.65;;
52126;SDS011;38120;53.176;6.614;2023-04-01T22:58:05;7.07;;;3.35;;
52126;SDS011;38120;53.176;6.614;2023-04-01T23:05:53;6.00;;;3.47;;
52126;SDS011;38120;53.176;6.614;2023-04-01T23:08:37;6.07;;;3.38;;
52126;SDS011;38120;53.176;6.614;2023-04-01T23:11:16;7.07;;;3.28;;
52126;SDS011;38120;53.176;6.614;2023-04-01T23:25:17;7.78;;;3.58;;
52126;SDS011;38120;53.176;6.614;2023-04-01T23:33:11;6.50;;;3.28;;
52126;SDS011;38120;53.176;6.614;2023-04-01T23:38:35;12.02;;;4.47;;
52126;SDS011;38120;53.176;6.614;2023-04-01T23:41:06;6.47;;;3.00;;
52126;SDS011;38120;53.176;6.614;2023-04-01T23:43:49;7.72;;;3.60;;
52126;SDS011;38120;53.176;6.614;2023-04-01T23:46:21;6.45;;;3.55;;
52126;SDS011;38120;53.176;6.614;2023-04-01T23:48:47;9.32;;;3.38;;
52126;SDS011;38120;53.176;6.614;2023-04-01T23:51:17;5.80;;;3.15;;
52126;SDS011;38120;53.176;6.614;2023-04-01T23:53:48;5.90;;;2.92;;
52126;SDS011;38120;53.176;6.614;2023-04-01T23:56:30;8.07;;;3.13;;
52126;SDS011;38120;53.176;6.614;2023-04-01T23:59:09;6.57;;;2.28;;
